Portada
METAR-TAF:

METAR-TAF

Aeroports :

Aeroport Internacional de Xangai-Pudong

Xangai-Pudong, Xina

latitud: 31-07N, longitud: 121-46E, altitud: 4 m

Observació

L'informe es va fer fa 20 minuts, a les 11:30 UTC
Vent 12 kt del Nord
Temperatura 15°C
Humitat 55%
Pressió 1021 hPa
Visibilitat 10 km o més
sense núvols per sota de 1500 mi sense presència de cumulonimbus.

METAR: ZSPD 231130Z 35006MPS CAVOK 15/06 Q1021 NOSIG

Hora: 19:50 (11:50 UTC)

Pronòstic

L'informe es va fer fa 2 hores i 37 minuts, a les 09:13 UTC
Pronòstic vàlid del 23 a les 12 UTC al 24 a les 12 UTC
Vent 8 kt del Nord
Visibilitat: 6000 m
Núvols disperses a una alçada de 2000 ft

TAF: ZSPD 230913Z 2312/2412 36004MPS 6000 SCT020 TX19/2406Z TN11/2321Z

Observacions i pronòstics meteorològics de més de 4000 aeroports (METAR i TAF).

Les estacions disponibles són els punts grocs i vermells al mapa.

Posi el ratolí al punt desitjat per veure el nom de l'estació.

Feu clic per veure les observacions i els pronòstics meteorològics.

Per canviar el mapa: feu clic els botons verds amb una creu de color negre per apropar; al botó verd amb un guió per allunyar la imatge; o en les fletxes verdes per a mapes adjacents.


METAR-TAF: